sensor_id;sensor_type;location;lat;lon;timestamp;pressure;altitude;pressure_sealevel;temperature;humidity
38688;BME280;24444;53.216;-6.664;2022-10-22T00:01:57;98502.09;;;8.43;100.00
38688;BME280;24444;53.216;-6.664;2022-10-22T00:04:25;98502.93;;;8.19;100.00
38688;BME280;24444;53.216;-6.664;2022-10-22T00:06:52;98510.29;;;8.50;100.00
38688;BME280;24444;53.216;-6.664;2022-10-22T00:09:20;98513.69;;;8.55;100.00
38688;BME280;24444;53.216;-6.664;2022-10-22T00:11:47;98519.16;;;8.67;100.00
38688;BME280;24444;53.216;-6.664;2022-10-22T00:14:15;98523.52;;;8.23;100.00
38688;BME280;24444;53.216;-6.664;2022-10-22T00:16:43;98530.64;;;8.39;100.00
38688;BME280;24444;53.216;-6.664;2022-10-22T00:19:10;98530.93;;;8.22;100.00
38688;BME280;24444;53.216;-6.664;2022-10-22T00:21:38;98533.85;;;8.37;100.00
38688;BME280;24444;53.216;-6.664;2022-10-22T00:24:06;98540.99;;;8.13;100.00
38688;BME280;24444;53.216;-6.664;2022-10-22T00:26:34;98542.87;;;8.41;100.00
38688;BME280;24444;53.216;-6.664;2022-10-22T00:29:01;98546.06;;;8.43;100.00
38688;BME280;24444;53.216;-6.664;2022-10-22T00:31:29;98553.58;;;7.99;100.00
38688;BME280;24444;53.216;-6.664;2022-10-22T00:33:56;98554.69;;;8.13;100.00
38688;BME280;24444;53.216;-6.664;2022-10-22T00:36:24;98564.70;;;7.68;100.00
38688;BME280;24444;53.216;-6.664;2022-10-22T00:38:51;98561.42;;;7.97;100.00
38688;BME280;24444;53.216;-6.664;2022-10-22T00:43:58;98570.22;;;7.93;100.00
38688;BME280;24444;53.216;-6.664;2022-10-22T00:46:26;98575.66;;;7.83;100.00
38688;BME280;24444;53.216;-6.664;2022-10-22T00:48:56;98581.78;;;7.78;100.00
38688;BME280;24444;53.216;-6.664;2022-10-22T00:51:26;98583.98;;;8.11;100.00
38688;BME280;24444;53.216;-6.664;2022-10-22T00:53:58;98586.51;;;8.38;100.00
38688;BME280;24444;53.216;-6.664;2022-10-22T00:56:27;98594.06;;;8.20;100.00
38688;BME280;24444;53.216;-6.664;2022-10-22T00:58:57;98598.19;;;8.21;100.00
38688;BME280;24444;53.216;-6.664;2022-10-22T01:01:28;98599.04;;;8.32;100.00
38688;BME280;24444;53.216;-6.664;2022-10-22T01:03:56;98603.25;;;7.98;100.00
38688;BME280;24444;53.216;-6.664;2022-10-22T01:06:26;98612.94;;;8.06;100.00
38688;BME280;24444;53.216;-6.664;2022-10-22T01:09:03;98615.51;;;8.37;100.00
38688;BME280;24444;53.216;-6.664;2022-10-22T01:11:42;98614.86;;;8.41;100.00
38688;BME280;24444;53.216;-6.664;2022-10-22T01:14:21;98622.51;;;8.95;100.00
38688;BME280;24444;53.216;-6.664;2022-10-22T01:16:56;98624.03;;;8.66;100.00
38688;BME280;24444;53.216;-6.664;2022-10-22T01:19:39;98625.11;;;8.01;100.00
38688;BME280;24444;53.216;-6.664;2022-10-22T01:22:15;98630.54;;;8.15;100.00
38688;BME280;24444;53.216;-6.664;2022-10-22T01:24:52;98641.41;;;8.77;100.00
38688;BME280;24444;53.216;-6.664;2022-10-22T01:27:28;98643.08;;;8.82;100.00
38688;BME280;24444;53.216;-6.664;2022-10-22T01:30:00;98646.37;;;8.49;100.00
38688;BME280;24444;53.216;-6.664;2022-10-22T01:32:32;98651.31;;;7.81;100.00
38688;BME280;24444;53.216;-6.664;2022-10-22T01:35:05;98654.03;;;8.65;100.00
38688;BME280;24444;53.216;-6.664;2022-10-22T01:37:37;98656.52;;;7.86;100.00
38688;BME280;24444;53.216;-6.664;2022-10-22T01:40:09;98661.03;;;8.30;100.00
38688;BME280;24444;53.216;-6.664;2022-10-22T01:42:37;98668.00;;;8.15;100.00
38688;BME280;24444;53.216;-6.664;2022-10-22T01:45:10;98672.07;;;8.30;100.00
38688;BME280;24444;53.216;-6.664;2022-10-22T01:47:46;98678.15;;;8.09;100.00
38688;BME280;24444;53.216;-6.664;2022-10-22T01:50:27;98675.79;;;8.11;100.00
38688;BME280;24444;53.216;-6.664;2022-10-22T01:53:16;98682.02;;;8.46;100.00
38688;BME280;24444;53.216;-6.664;2022-10-22T01:55:54;98678.59;;;8.28;100.00
38688;BME280;24444;53.216;-6.664;2022-10-22T01:58:31;98687.57;;;8.15;100.00
38688;BME280;24444;53.216;-6.664;2022-10-22T02:01:06;98690.12;;;8.34;100.00
38688;BME280;24444;53.216;-6.664;2022-10-22T02:03:43;98694.81;;;7.77;100.00
38688;BME280;24444;53.216;-6.664;2022-10-22T02:06:15;98701.18;;;8.45;100.00
38688;BME280;24444;53.216;-6.664;2022-10-22T02:08:44;98702.59;;;7.78;100.00
38688;BME280;24444;53.216;-6.664;2022-10-22T02:11:13;98703.98;;;7.92;100.00
38688;BME280;24444;53.216;-6.664;2022-10-22T02:13:43;98708.39;;;7.64;100.00
38688;BME280;24444;53.216;-6.664;2022-10-22T02:16:17;98709.21;;;8.03;100.00
38688;BME280;24444;53.216;-6.664;2022-10-22T02:18:46;98709.33;;;7.53;100.00
38688;BME280;24444;53.216;-6.664;2022-10-22T02:21:16;98707.83;;;7.75;100.00
38688;BME280;24444;53.216;-6.664;2022-10-22T02:23:44;98711.06;;;7.98;100.00
38688;BME280;24444;53.216;-6.664;2022-10-22T02:26:18;98716.38;;;8.10;100.00
38688;BME280;24444;53.216;-6.664;2022-10-22T02:28:57;98725.70;;;7.68;100.00
38688;BME280;24444;53.216;-6.664;2022-10-22T02:31:29;98736.62;;;7.50;100.00
38688;BME280;24444;53.216;-6.664;2022-10-22T02:34:00;98736.88;;;7.82;100.00
38688;BME280;24444;53.216;-6.664;2022-10-22T02:36:29;98742.59;;;7.72;100.00
38688;BME280;24444;53.216;-6.664;2022-10-22T02:38:57;98740.32;;;7.71;100.00
38688;BME280;24444;53.216;-6.664;2022-10-22T02:41:26;98747.10;;;7.74;100.00
38688;BME280;24444;53.216;-6.664;2022-10-22T02:43:54;98748.31;;;7.70;100.00
38688;BME280;24444;53.216;-6.664;2022-10-22T02:46:22;98751.21;;;7.69;100.00
38688;BME280;24444;53.216;-6.664;2022-10-22T02:48:50;98758.98;;;7.72;100.00
38688;BME280;24444;53.216;-6.664;2022-10-22T02:51:17;98759.73;;;7.55;100.00
38688;BME280;24444;53.216;-6.664;2022-10-22T02:53:45;98758.49;;;7.90;100.00
38688;BME280;24444;53.216;-6.664;2022-10-22T02:56:12;98758.15;;;7.84;100.00
38688;BME280;24444;53.216;-6.664;2022-10-22T02:58:40;98756.86;;;7.64;100.00
38688;BME280;24444;53.216;-6.664;2022-10-22T03:01:07;98752.71;;;7.92;100.00
38688;BME280;24444;53.216;-6.664;2022-10-22T03:03:35;98760.11;;;8.18;100.00
38688;BME280;24444;53.216;-6.664;2022-10-22T03:06:03;98761.17;;;7.87;100.00
38688;BME280;24444;53.216;-6.664;2022-10-22T03:08:30;98758.56;;;7.96;100.00
38688;BME280;24444;53.216;-6.664;2022-10-22T03:10:58;98760.85;;;7.78;100.00
38688;BME280;24444;53.216;-6.664;2022-10-22T03:13:30;98758.92;;;7.29;100.00
38688;BME280;24444;53.216;-6.664;2022-10-22T03:15:57;98767.51;;;7.88;100.00
38688;BME280;24444;53.216;-6.664;2022-10-22T03:18:25;98776.27;;;7.71;100.00
38688;BME280;24444;53.216;-6.664;2022-10-22T03:21:00;98779.04;;;7.31;100.00
38688;BME280;24444;53.216;-6.664;2022-10-22T03:23:31;98785.41;;;7.32;100.00
38688;BME280;24444;53.216;-6.664;2022-10-22T03:25:58;98787.16;;;7.26;100.00
38688;BME280;24444;53.216;-6.664;2022-10-22T03:28:26;98792.15;;;7.37;100.00
38688;BME280;24444;53.216;-6.664;2022-10-22T03:30:53;98796.07;;;7.03;100.00
38688;BME280;24444;53.216;-6.664;2022-10-22T03:33:21;98793.50;;;7.73;100.00
38688;BME280;24444;53.216;-6.664;2022-10-22T03:35:48;98802.79;;;7.10;100.00
38688;BME280;24444;53.216;-6.664;2022-10-22T03:38:16;98805.97;;;7.46;100.00
38688;BME280;24444;53.216;-6.664;2022-10-22T03:40:45;98805.99;;;7.16;100.00
38688;BME280;24444;53.216;-6.664;2022-10-22T03:43:13;98812.53;;;7.20;100.00
38688;BME280;24444;53.216;-6.664;2022-10-22T03:45:41;98817.64;;;7.35;100.00
38688;BME280;24444;53.216;-6.664;2022-10-22T03:48:09;98816.92;;;6.94;100.00
38688;BME280;24444;53.216;-6.664;2022-10-22T03:50:37;98826.32;;;6.96;100.00
38688;BME280;24444;53.216;-6.664;2022-10-22T03:53:05;98825.53;;;6.96;100.00
38688;BME280;24444;53.216;-6.664;2022-10-22T03:55:32;98833.27;;;6.98;100.00
38688;BME280;24444;53.216;-6.664;2022-10-22T03:57:59;98835.93;;;7.38;100.00
38688;BME280;24444;53.216;-6.664;2022-10-22T04:00:26;98833.88;;;6.91;100.00
38688;BME280;24444;53.216;-6.664;2022-10-22T04:02:54;98843.27;;;7.17;100.00
38688;BME280;24444;53.216;-6.664;2022-10-22T04:05:21;98843.13;;;6.93;100.00
38688;BME280;24444;53.216;-6.664;2022-10-22T04:07:49;98841.01;;;7.51;100.00
38688;BME280;24444;53.216;-6.664;2022-10-22T04:10:17;98848.74;;;7.36;100.00
38688;BME280;24444;53.216;-6.664;2022-10-22T04:12:46;98851.94;;;7.20;100.00
38688;BME280;24444;53.216;-6.664;2022-10-22T04:15:13;98851.45;;;7.12;100.00
38688;BME280;24444;53.216;-6.664;2022-10-22T04:17:40;98854.88;;;7.33;100.00
38688;BME280;24444;53.216;-6.664;2022-10-22T04:20:09;98850.80;;;7.18;100.00
38688;BME280;24444;53.216;-6.664;2022-10-22T04:22:37;98852.13;;;7.03;100.00
38688;BME280;24444;53.216;-6.664;2022-10-22T04:25:05;98854.26;;;6.62;100.00
38688;BME280;24444;53.216;-6.664;2022-10-22T04:27:33;98854.89;;;6.86;100.00
38688;BME280;24444;53.216;-6.664;2022-10-22T04:30:01;98861.72;;;6.80;100.00
38688;BME280;24444;53.216;-6.664;2022-10-22T04:32:29;98863.87;;;7.07;100.00
38688;BME280;24444;53.216;-6.664;2022-10-22T04:34:56;98861.45;;;6.72;100.00
38688;BME280;24444;53.216;-6.664;2022-10-22T04:37:24;98868.28;;;6.93;100.00
38688;BME280;24444;53.216;-6.664;2022-10-22T04:39:52;98870.33;;;6.77;100.00
38688;BME280;24444;53.216;-6.664;2022-10-22T04:42:19;98875.60;;;7.12;100.00
38688;BME280;24444;53.216;-6.664;2022-10-22T04:44:46;98882.00;;;7.41;100.00
38688;BME280;24444;53.216;-6.664;2022-10-22T04:47:14;98891.51;;;6.67;100.00
38688;BME280;24444;53.216;-6.664;2022-10-22T04:49:40;98892.10;;;7.13;100.00
38688;BME280;24444;53.216;-6.664;2022-10-22T04:52:08;98890.21;;;6.23;100.00
38688;BME280;24444;53.216;-6.664;2022-10-22T04:54:36;98894.34;;;6.19;100.00
38688;BME280;24444;53.216;-6.664;2022-10-22T04:57:03;98895.24;;;6.54;100.00
38688;BME280;24444;53.216;-6.664;2022-10-22T04:59:31;98902.54;;;6.71;100.00
38688;BME280;24444;53.216;-6.664;2022-10-22T05:01:59;98903.49;;;6.82;100.00
38688;BME280;24444;53.216;-6.664;2022-10-22T05:04:27;98905.34;;;6.65;100.00
38688;BME280;24444;53.216;-6.664;2022-10-22T05:06:54;98911.55;;;6.21;100.00
38688;BME280;24444;53.216;-6.664;2022-10-22T05:09:22;98912.57;;;6.36;100.00
38688;BME280;24444;53.216;-6.664;2022-10-22T05:11:51;98915.78;;;6.32;100.00
38688;BME280;24444;53.216;-6.664;2022-10-22T05:14:22;98918.85;;;6.37;100.00
38688;BME280;24444;53.216;-6.664;2022-10-22T05:16:50;98925.04;;;6.48;100.00
38688;BME280;24444;53.216;-6.664;2022-10-22T05:19:20;98924.26;;;6.03;100.00
38688;BME280;24444;53.216;-6.664;2022-10-22T05:21:47;98931.25;;;5.93;100.00
38688;BME280;24444;53.216;-6.664;2022-10-22T05:24:15;98933.82;;;6.03;100.00
38688;BME280;24444;53.216;-6.664;2022-10-22T05:26:43;98942.65;;;6.05;100.00
38688;BME280;24444;53.216;-6.664;2022-10-22T05:29:10;98940.50;;;6.09;100.00
38688;BME280;24444;53.216;-6.664;2022-10-22T05:31:43;98944.99;;;5.73;100.00
38688;BME280;24444;53.216;-6.664;2022-10-22T05:34:11;98938.13;;;6.37;100.00
38688;BME280;24444;53.216;-6.664;2022-10-22T05:36:39;98933.74;;;6.23;100.00
38688;BME280;24444;53.216;-6.664;2022-10-22T05:39:06;98934.46;;;6.27;100.00
38688;BME280;24444;53.216;-6.664;2022-10-22T05:41:34;98940.81;;;5.76;100.00
38688;BME280;24444;53.216;-6.664;2022-10-22T05:44:03;98948.00;;;5.40;100.00
38688;BME280;24444;53.216;-6.664;2022-10-22T05:46:34;98950.44;;;6.04;100.00
38688;BME280;24444;53.216;-6.664;2022-10-22T05:49:03;98948.98;;;6.20;100.00
38688;BME280;24444;53.216;-6.664;2022-10-22T05:51:33;98949.19;;;5.56;100.00
38688;BME280;24444;53.216;-6.664;2022-10-22T05:54:03;98956.89;;;5.53;100.00
38688;BME280;24444;53.216;-6.664;2022-10-22T05:56:30;98962.34;;;5.35;100.00
38688;BME280;24444;53.216;-6.664;2022-10-22T05:58:59;98964.67;;;5.20;100.00
38688;BME280;24444;53.216;-6.664;2022-10-22T06:01:28;98969.80;;;5.35;100.00
38688;BME280;24444;53.216;-6.664;2022-10-22T06:03:58;98975.14;;;5.02;100.00
38688;BME280;24444;53.216;-6.664;2022-10-22T06:06:29;98981.45;;;5.40;100.00
38688;BME280;24444;53.216;-6.664;2022-10-22T06:09:01;98982.87;;;5.35;100.00
38688;BME280;24444;53.216;-6.664;2022-10-22T06:11:29;98988.06;;;5.52;100.00
38688;BME280;24444;53.216;-6.664;2022-10-22T06:13:57;98993.34;;;5.19;100.00
38688;BME280;24444;53.216;-6.664;2022-10-22T06:16:27;98995.00;;;5.39;100.00
38688;BME280;24444;53.216;-6.664;2022-10-22T06:18:56;98996.70;;;5.54;100.00
38688;BME280;24444;53.216;-6.664;2022-10-22T06:21:24;99000.00;;;5.47;100.00
38688;BME280;24444;53.216;-6.664;2022-10-22T06:23:54;99004.80;;;5.93;100.00
38688;BME280;24444;53.216;-6.664;2022-10-22T06:26:21;99006.71;;;5.42;100.00
38688;BME280;24444;53.216;-6.664;2022-10-22T06:28:49;99006.95;;;5.46;100.00
38688;BME280;24444;53.216;-6.664;2022-10-22T06:31:17;99004.10;;;5.98;100.00
38688;BME280;24444;53.216;-6.664;2022-10-22T06:33:44;99011.40;;;5.51;100.00
38688;BME280;24444;53.216;-6.664;2022-10-22T06:36:13;99014.63;;;5.18;100.00
38688;BME280;24444;53.216;-6.664;2022-10-22T06:38:41;99017.31;;;5.40;100.00
38688;BME280;24444;53.216;-6.664;2022-10-22T06:41:11;99020.57;;;5.66;99.96
38688;BME280;24444;53.216;-6.664;2022-10-22T06:43:39;99022.06;;;5.65;99.80
38688;BME280;24444;53.216;-6.664;2022-10-22T06:46:08;99024.67;;;5.64;99.43
38688;BME280;24444;53.216;-6.664;2022-10-22T06:48:37;99029.42;;;5.14;99.01
38688;BME280;24444;53.216;-6.664;2022-10-22T06:51:07;99029.93;;;6.05;98.94
38688;BME280;24444;53.216;-6.664;2022-10-22T06:53:36;99035.16;;;5.44;99.69
38688;BME280;24444;53.216;-6.664;2022-10-22T06:56:05;99038.74;;;5.65;100.00
38688;BME280;24444;53.216;-6.664;2022-10-22T06:58:33;99037.28;;;6.26;97.68
38688;BME280;24444;53.216;-6.664;2022-10-22T07:01:01;99039.53;;;5.56;97.82
38688;BME280;24444;53.216;-6.664;2022-10-22T07:03:29;99040.70;;;5.89;97.88
38688;BME280;24444;53.216;-6.664;2022-10-22T07:05:59;99047.69;;;5.02;98.26
38688;BME280;24444;53.216;-6.664;2022-10-22T07:08:26;99051.11;;;5.18;98.70
38688;BME280;24444;53.216;-6.664;2022-10-22T07:10:54;99060.70;;;5.48;97.86
38688;BME280;24444;53.216;-6.664;2022-10-22T07:13:21;99056.90;;;5.52;97.36
38688;BME280;24444;53.216;-6.664;2022-10-22T07:15:52;99071.75;;;5.23;97.75
38688;BME280;24444;53.216;-6.664;2022-10-22T07:18:19;99072.95;;;5.30;96.82
38688;BME280;24444;53.216;-6.664;2022-10-22T07:20:47;99078.93;;;5.34;97.76
38688;BME280;24444;53.216;-6.664;2022-10-22T07:23:14;99072.87;;;4.61;98.11
38688;BME280;24444;53.216;-6.664;2022-10-22T07:25:42;99083.89;;;5.32;97.64
38688;BME280;24444;53.216;-6.664;2022-10-22T07:28:10;99089.31;;;5.97;96.44
38688;BME280;24444;53.216;-6.664;2022-10-22T07:30:38;99088.57;;;6.06;96.87
38688;BME280;24444;53.216;-6.664;2022-10-22T07:33:06;99097.20;;;5.52;96.31
38688;BME280;24444;53.216;-6.664;2022-10-22T07:35:35;99099.31;;;5.73;96.01
38688;BME280;24444;53.216;-6.664;2022-10-22T07:38:03;99100.13;;;5.79;95.96
38688;BME280;24444;53.216;-6.664;2022-10-22T07:40:31;99100.55;;;5.45;97.15
38688;BME280;24444;53.216;-6.664;2022-10-22T07:42:59;99107.02;;;6.55;93.99
38688;BME280;24444;53.216;-6.664;2022-10-22T07:45:26;99114.33;;;6.03;94.72
38688;BME280;24444;53.216;-6.664;2022-10-22T07:47:54;99117.45;;;6.14;95.19
38688;BME280;24444;53.216;-6.664;2022-10-22T07:50:21;99120.28;;;6.15;94.95
38688;BME280;24444;53.216;-6.664;2022-10-22T07:52:48;99124.46;;;5.64;95.54
38688;BME280;24444;53.216;-6.664;2022-10-22T07:55:16;99129.63;;;5.33;96.32
38688;BME280;24444;53.216;-6.664;2022-10-22T07:57:44;99137.17;;;5.84;95.44
38688;BME280;24444;53.216;-6.664;2022-10-22T08:00:12;99132.35;;;6.07;94.29
38688;BME280;24444;53.216;-6.664;2022-10-22T08:02:40;99137.49;;;5.81;95.32
38688;BME280;24444;53.216;-6.664;2022-10-22T08:05:08;99135.18;;;6.08;95.77
38688;BME280;24444;53.216;-6.664;2022-10-22T08:07:36;99143.79;;;5.72;95.98
38688;BME280;24444;53.216;-6.664;2022-10-22T08:10:03;99149.93;;;5.85;96.56
38688;BME280;24444;53.216;-6.664;2022-10-22T08:12:30;99154.93;;;6.19;96.67
38688;BME280;24444;53.216;-6.664;2022-10-22T08:14:58;99161.39;;;6.14;96.28
38688;BME280;24444;53.216;-6.664;2022-10-22T08:17:26;99170.85;;;6.20;96.07
38688;BME280;24444;53.216;-6.664;2022-10-22T08:19:54;99177.36;;;6.04;96.86
38688;BME280;24444;53.216;-6.664;2022-10-22T08:22:21;99181.73;;;6.13;97.26
38688;BME280;24444;53.216;-6.664;2022-10-22T08:24:49;99188.43;;;6.36;96.43
38688;BME280;24444;53.216;-6.664;2022-10-22T08:27:16;99188.15;;;6.14;96.12
38688;BME280;24444;53.216;-6.664;2022-10-22T08:29:43;99188.27;;;6.48;96.44
38688;BME280;24444;53.216;-6.664;2022-10-22T08:32:10;99183.92;;;6.55;96.71
38688;BME280;24444;53.216;-6.664;2022-10-22T08:34:37;99186.53;;;6.73;95.09
38688;BME280;24444;53.216;-6.664;2022-10-22T08:37:04;99193.62;;;6.50;95.59
38688;BME280;24444;53.216;-6.664;2022-10-22T08:39:31;99186.22;;;6.70;95.08
38688;BME280;24444;53.216;-6.664;2022-10-22T08:42:05;99187.83;;;6.85;94.88
38688;BME280;24444;53.216;-6.664;2022-10-22T08:44:47;99184.95;;;7.20;96.22
38688;BME280;24444;53.216;-6.664;2022-10-22T08:47:35;99182.11;;;6.96;97.45
38688;BME280;24444;53.216;-6.664;2022-10-22T08:50:09;99186.05;;;7.01;97.13
38688;BME280;24444;53.216;-6.664;2022-10-22T08:52:40;99188.40;;;7.19;95.03
38688;BME280;24444;53.216;-6.664;2022-10-22T08:55:21;99195.12;;;6.90;95.15
38688;BME280;24444;53.216;-6.664;2022-10-22T08:57:56;99195.80;;;6.77;97.26
38688;BME280;24444;53.216;-6.664;2022-10-22T09:00:32;99203.74;;;6.57;96.63
38688;BME280;24444;53.216;-6.664;2022-10-22T09:03:11;99200.96;;;7.35;95.78
38688;BME280;24444;53.216;-6.664;2022-10-22T09:05:47;99195.79;;;7.07;96.73
38688;BME280;24444;53.216;-6.664;2022-10-22T09:08:18;99205.89;;;6.62;97.84
38688;BME280;24444;53.216;-6.664;2022-10-22T09:10:49;99202.24;;;7.04;97.07
38688;BME280;24444;53.216;-6.664;2022-10-22T09:13:20;99206.92;;;6.94;97.63
38688;BME280;24444;53.216;-6.664;2022-10-22T09:15:52;99208.17;;;7.08;97.43
38688;BME280;24444;53.216;-6.664;2022-10-22T09:18:31;99209.16;;;6.42;99.48
38688;BME280;24444;53.216;-6.664;2022-10-22T09:21:05;99209.96;;;6.53;100.00
38688;BME280;24444;53.216;-6.664;2022-10-22T09:23:50;99215.39;;;6.58;100.00
38688;BME280;24444;53.216;-6.664;2022-10-22T09:26:21;99212.18;;;6.74;100.00
38688;BME280;24444;53.216;-6.664;2022-10-22T09:28:49;99210.05;;;6.94;100.00
38688;BME280;24444;53.216;-6.664;2022-10-22T09:31:17;99214.64;;;7.36;99.36
38688;BME280;24444;53.216;-6.664;2022-10-22T09:33:46;99201.22;;;7.45;98.06
38688;BME280;24444;53.216;-6.664;2022-10-22T09:36:17;99208.59;;;9.21;96.25
38688;BME280;24444;53.216;-6.664;2022-10-22T09:38:46;99208.91;;;9.62;89.95
38688;BME280;24444;53.216;-6.664;2022-10-22T09:41:15;99210.81;;;9.57;87.16
38688;BME280;24444;53.216;-6.664;2022-10-22T09:43:42;99211.77;;;9.00;89.04
38688;BME280;24444;53.216;-6.664;2022-10-22T09:46:15;99217.12;;;8.51;90.11
38688;BME280;24444;53.216;-6.664;2022-10-22T09:48:47;99219.97;;;7.96;93.73
38688;BME280;24444;53.216;-6.664;2022-10-22T09:51:19;99221.18;;;8.93;93.25
38688;BME280;24444;53.216;-6.664;2022-10-22T09:53:55;99230.91;;;7.72;95.06
38688;BME280;24444;53.216;-6.664;2022-10-22T09:56:25;99229.57;;;7.89;97.98
38688;BME280;24444;53.216;-6.664;2022-10-22T09:58:56;99230.19;;;8.30;96.07
38688;BME280;24444;53.216;-6.664;2022-10-22T10:01:25;99236.39;;;8.57;95.54
38688;BME280;24444;53.216;-6.664;2022-10-22T10:03:54;99239.08;;;8.30;95.29
38688;BME280;24444;53.216;-6.664;2022-10-22T10:06:32;99237.47;;;9.83;93.77
38688;BME280;24444;53.216;-6.664;2022-10-22T10:09:00;99232.01;;;10.18;89.76
38688;BME280;24444;53.216;-6.664;2022-10-22T10:11:33;99231.33;;;10.91;89.11
38688;BME280;24444;53.216;-6.664;2022-10-22T10:14:10;99233.65;;;11.89;81.33
38688;BME280;24444;53.216;-6.664;2022-10-22T10:16:45;99236.08;;;13.30;77.57
38688;BME280;24444;53.216;-6.664;2022-10-22T10:19:31;99236.21;;;13.73;71.61
38688;BME280;24444;53.216;-6.664;2022-10-22T10:22:11;99241.22;;;13.69;70.14
38688;BME280;24444;53.216;-6.664;2022-10-22T10:24:53;99237.59;;;12.87;70.81
38688;BME280;24444;53.216;-6.664;2022-10-22T10:27:29;99239.05;;;11.90;75.64
38688;BME280;24444;53.216;-6.664;2022-10-22T10:30:03;99247.10;;;11.35;78.32
38688;BME280;24444;53.216;-6.664;2022-10-22T10:32:48;99250.42;;;9.93;83.59
38688;BME280;24444;53.216;-6.664;2022-10-22T10:35:24;99253.32;;;10.03;87.37
38688;BME280;24444;53.216;-6.664;2022-10-22T10:38:15;99254.39;;;9.26;89.60
38688;BME280;24444;53.216;-6.664;2022-10-22T10:40:48;99257.49;;;9.70;90.41
38688;BME280;24444;53.216;-6.664;2022-10-22T10:43:24;99259.04;;;9.00;90.62
38688;BME280;24444;53.216;-6.664;2022-10-22T10:46:00;99260.18;;;9.63;91.36
38688;BME280;24444;53.216;-6.664;2022-10-22T10:48:40;99261.26;;;9.37;91.72
38688;BME280;24444;53.216;-6.664;2022-10-22T10:51:22;99263.49;;;9.54;90.58
38688;BME280;24444;53.216;-6.664;2022-10-22T10:54:02;99266.39;;;9.82;91.92
38688;BME280;24444;53.216;-6.664;2022-10-22T10:56:38;99267.87;;;9.33;91.91
38688;BME280;24444;53.216;-6.664;2022-10-22T10:59:18;99268.09;;;9.37;89.90
38688;BME280;24444;53.216;-6.664;2022-10-22T11:02:00;99264.91;;;9.77;92.45
38688;BME280;24444;53.216;-6.664;2022-10-22T11:05:49;99269.72;;;9.51;90.71
38688;BME280;24444;53.216;-6.664;2022-10-22T11:08:21;99276.84;;;9.70;93.68
38688;BME280;24444;53.216;-6.664;2022-10-22T11:10:58;99280.02;;;9.58;91.83
38688;BME280;24444;53.216;-6.664;2022-10-22T11:13:30;99276.24;;;9.54;91.11
38688;BME280;24444;53.216;-6.664;2022-10-22T11:16:04;99282.29;;;9.60;90.65
38688;BME280;24444;53.216;-6.664;2022-10-22T11:18:40;99280.13;;;10.47;91.19
38688;BME280;24444;53.216;-6.664;2022-10-22T11:21:17;99284.16;;;9.99;90.49
38688;BME280;24444;53.216;-6.664;2022-10-22T11:23:59;99285.89;;;10.27;90.45
38688;BME280;24444;53.216;-6.664;2022-10-22T11:26:37;99286.07;;;10.09;89.29
38688;BME280;24444;53.216;-6.664;2022-10-22T11:29:12;99291.07;;;9.86;90.72
38688;BME280;24444;53.216;-6.664;2022-10-22T11:31:41;99293.74;;;10.18;91.88
38688;BME280;24444;53.216;-6.664;2022-10-22T11:34:15;99298.36;;;10.14;91.71
38688;BME280;24444;53.216;-6.664;2022-10-22T11:36:44;99287.66;;;10.42;90.51
38688;BME280;24444;53.216;-6.664;2022-10-22T11:39:29;99289.97;;;10.52;91.90
38688;BME280;24444;53.216;-6.664;2022-10-22T11:41:58;99295.34;;;10.51;89.68
38688;BME280;24444;53.216;-6.664;2022-10-22T11:44:27;99290.30;;;10.41;87.98
38688;BME280;24444;53.216;-6.664;2022-10-22T11:46:56;99291.60;;;11.22;87.49
38688;BME280;24444;53.216;-6.664;2022-10-22T11:49:26;99295.23;;;12.09;86.14
38688;BME280;24444;53.216;-6.664;2022-10-22T11:52:36;99290.84;;;11.65;84.65
38688;BME280;24444;53.216;-6.664;2022-10-22T11:55:30;99293.96;;;12.42;85.41
38688;BME280;24444;53.216;-6.664;2022-10-22T11:58:00;99290.62;;;12.42;83.93
38688;BME280;24444;53.216;-6.664;2022-10-22T12:00:34;99293.76;;;12.93;80.15
38688;BME280;24444;53.216;-6.664;2022-10-22T12:03:16;99289.19;;;13.48;78.70
38688;BME280;24444;53.216;-6.664;2022-10-22T12:05:44;99289.93;;;13.10;81.42
38688;BME280;24444;53.216;-6.664;2022-10-22T12:08:19;99291.96;;;12.78;82.39
38688;BME280;24444;53.216;-6.664;2022-10-22T12:11:02;99290.94;;;12.33;83.12
38688;BME280;24444;53.216;-6.664;2022-10-22T12:13:32;99294.53;;;12.45;84.51
38688;BME280;24444;53.216;-6.664;2022-10-22T12:16:02;99287.66;;;11.79;85.38
38688;BME280;24444;53.216;-6.664;2022-10-22T12:18:37;99291.67;;;11.38;88.65
38688;BME280;24444;53.216;-6.664;2022-10-22T12:21:07;99287.47;;;12.06;87.75
38688;BME280;24444;53.216;-6.664;2022-10-22T12:23:37;99282.79;;;11.68;89.47
38688;BME280;24444;53.216;-6.664;2022-10-22T12:26:05;99288.79;;;11.77;89.44
38688;BME280;24444;53.216;-6.664;2022-10-22T12:28:38;99285.75;;;11.71;88.41
38688;BME280;24444;53.216;-6.664;2022-10-22T12:31:14;99286.31;;;11.27;90.17
38688;BME280;24444;53.216;-6.664;2022-10-22T12:33:41;99284.84;;;11.37;91.75
38688;BME280;24444;53.216;-6.664;2022-10-22T12:36:15;99288.96;;;11.07;92.08
38688;BME280;24444;53.216;-6.664;2022-10-22T12:38:45;99281.58;;;10.93;92.54
38688;BME280;24444;53.216;-6.664;2022-10-22T12:41:13;99281.94;;;10.84;94.62
38688;BME280;24444;53.216;-6.664;2022-10-22T12:43:40;99275.17;;;11.29;92.83
38688;BME280;24444;53.216;-6.664;2022-10-22T12:46:11;99273.83;;;11.64;92.69
38688;BME280;24444;53.216;-6.664;2022-10-22T12:48:41;99274.63;;;11.83;90.53
38688;BME280;24444;53.216;-6.664;2022-10-22T12:51:15;99279.80;;;11.97;91.58
38688;BME280;24444;53.216;-6.664;2022-10-22T12:53:45;99280.13;;;11.58;91.29
38688;BME280;24444;53.216;-6.664;2022-10-22T12:56:17;99278.50;;;12.36;90.22
38688;BME280;24444;53.216;-6.664;2022-10-22T12:58:50;99279.57;;;11.28;93.64
38688;BME280;24444;53.216;-6.664;2022-10-22T13:01:19;99281.76;;;10.82;94.34
38688;BME280;24444;53.216;-6.664;2022-10-22T13:03:48;99283.22;;;11.47;94.94
38688;BME280;24444;53.216;-6.664;2022-10-22T13:06:24;99278.39;;;11.36;93.90
38688;BME280;24444;53.216;-6.664;2022-10-22T13:09:06;99279.24;;;10.99;96.11
38688;BME280;24444;53.216;-6.664;2022-10-22T13:11:40;99275.71;;;11.00;96.78
38688;BME280;24444;53.216;-6.664;2022-10-22T13:14:19;99277.03;;;11.22;96.80
38688;BME280;24444;53.216;-6.664;2022-10-22T13:17:04;99277.17;;;11.20;98.13